sensor_id;sensor_type;location;lat;lon;timestamp;pressure;altitude;pressure_sealevel;temperature;humidity
42727;BME280;28372;56.832;60.658;2022-10-31T00:00:55;96186.28;;;0.09;80.39
42727;BME280;28372;56.832;60.658;2022-10-31T00:03:22;96202.06;;;0.02;82.17
42727;BME280;28372;56.832;60.658;2022-10-31T00:05:50;96179.75;;;0.07;78.97
42727;BME280;28372;56.832;60.658;2022-10-31T00:08:18;96183.03;;;0.16;79.19
42727;BME280;28372;56.832;60.658;2022-10-31T00:10:46;96174.72;;;0.17;78.06
42727;BME280;28372;56.832;60.658;2022-10-31T00:13:14;96199.59;;;0.25;77.65
42727;BME280;28372;56.832;60.658;2022-10-31T00:15:42;96146.75;;;0.08;76.27
42727;BME280;28372;56.832;60.658;2022-10-31T00:18:10;96167.44;;;0.30;76.24
42727;BME280;28372;56.832;60.658;2022-10-31T00:20:38;96178.75;;;0.27;78.61
42727;BME280;28372;56.832;60.658;2022-10-31T00:23:06;96183.81;;;0.32;74.15
42727;BME280;28372;56.832;60.658;2022-10-31T00:25:37;96175.06;;;0.32;76.44
42727;BME280;28372;56.832;60.658;2022-10-31T00:28:06;96164.50;;;0.36;76.36
42727;BME280;28372;56.832;60.658;2022-10-31T00:30:34;96167.06;;;0.32;75.22
42727;BME280;28372;56.832;60.658;2022-10-31T00:33:03;96166.91;;;0.41;73.66
42727;BME280;28372;56.832;60.658;2022-10-31T00:35:32;96170.19;;;0.34;72.50
42727;BME280;28372;56.832;60.658;2022-10-31T00:37:59;96166.31;;;0.31;78.11
42727;BME280;28372;56.832;60.658;2022-10-31T00:40:27;96156.63;;;0.23;77.48
42727;BME280;28372;56.832;60.658;2022-10-31T00:42:54;96159.03;;;0.28;75.46
42727;BME280;28372;56.832;60.658;2022-10-31T00:45:22;96168.13;;;0.27;74.11
42727;BME280;28372;56.832;60.658;2022-10-31T00:47:50;96153.19;;;0.23;79.61
42727;BME280;28372;56.832;60.658;2022-10-31T00:50:17;96155.75;;;0.19;78.86
42727;BME280;28372;56.832;60.658;2022-10-31T00:52:45;96154.66;;;0.20;78.17
42727;BME280;28372;56.832;60.658;2022-10-31T00:55:12;96128.31;;;0.15;76.99
42727;BME280;28372;56.832;60.658;2022-10-31T00:57:40;96151.06;;;0.28;73.82
42727;BME280;28372;56.832;60.658;2022-10-31T01:00:08;96151.06;;;0.28;75.62
42727;BME280;28372;56.832;60.658;2022-10-31T01:02:35;96141.78;;;0.22;78.51
42727;BME280;28372;56.832;60.658;2022-10-31T01:05:03;96160.31;;;0.19;77.88
42727;BME280;28372;56.832;60.658;2022-10-31T01:07:31;96149.00;;;0.22;80.33
42727;BME280;28372;56.832;60.658;2022-10-31T01:09:59;96135.00;;;0.25;79.39
42727;BME280;28372;56.832;60.658;2022-10-31T01:12:28;96128.84;;;0.21;79.56
42727;BME280;28372;56.832;60.658;2022-10-31T01:14:56;96144.44;;;0.22;77.18
42727;BME280;28372;56.832;60.658;2022-10-31T01:17:23;96124.53;;;0.32;70.91
42727;BME280;28372;56.832;60.658;2022-10-31T01:19:51;96123.06;;;0.34;69.25
42727;BME280;28372;56.832;60.658;2022-10-31T01:22:18;96155.34;;;0.33;72.19
42727;BME280;28372;56.832;60.658;2022-10-31T01:24:46;96135.50;;;0.30;72.93
42727;BME280;28372;56.832;60.658;2022-10-31T01:27:13;96124.97;;;0.34;72.11
42727;BME280;28372;56.832;60.658;2022-10-31T01:29:40;96144.53;;;0.26;72.53
42727;BME280;28372;56.832;60.658;2022-10-31T01:32:08;96134.84;;;0.17;74.85
42727;BME280;28372;56.832;60.658;2022-10-31T01:34:35;96118.47;;;0.15;75.35
42727;BME280;28372;56.832;60.658;2022-10-31T01:37:03;96121.66;;;0.21;71.68
42727;BME280;28372;56.832;60.658;2022-10-31T01:39:32;96110.81;;;0.30;70.71
42727;BME280;28372;56.832;60.658;2022-10-31T01:42:00;96114.09;;;0.23;73.67
42727;BME280;28372;56.832;60.658;2022-10-31T01:47:03;96109.53;;;0.24;78.47
42727;BME280;28372;56.832;60.658;2022-10-31T01:49:36;96113.72;;;0.25;77.88
42727;BME280;28372;56.832;60.658;2022-10-31T01:52:10;96114.94;;;0.27;75.54
42727;BME280;28372;56.832;60.658;2022-10-31T01:54:45;96111.53;;;0.27;74.72
42727;BME280;28372;56.832;60.658;2022-10-31T01:57:14;96113.97;;;0.20;78.08
42727;BME280;28372;56.832;60.658;2022-10-31T01:59:47;96108.41;;;0.25;76.40
42727;BME280;28372;56.832;60.658;2022-10-31T02:02:17;96120.59;;;0.26;75.26
42727;BME280;28372;56.832;60.658;2022-10-31T02:04:46;96115.97;;;0.23;76.98
42727;BME280;28372;56.832;60.658;2022-10-31T02:07:25;96105.56;;;0.33;73.34
42727;BME280;28372;56.832;60.658;2022-10-31T02:09:58;96113.38;;;0.26;72.94
42727;BME280;28372;56.832;60.658;2022-10-31T02:12:30;96108.84;;;0.27;74.60
42727;BME280;28372;56.832;60.658;2022-10-31T02:15:00;96110.72;;;0.26;73.92
42727;BME280;28372;56.832;60.658;2022-10-31T02:17:29;96099.69;;;0.24;75.47
42727;BME280;28372;56.832;60.658;2022-10-31T02:33:52;96104.03;;;0.16;82.26
42727;BME280;28372;56.832;60.658;2022-10-31T02:36:49;96115.47;;;0.17;79.72
42727;BME280;28372;56.832;60.658;2022-10-31T02:39:31;96093.91;;;0.22;74.63
42727;BME280;28372;56.832;60.658;2022-10-31T02:47:39;96099.53;;;0.17;76.97
42727;BME280;28372;56.832;60.658;2022-10-31T02:50:21;96112.47;;;0.19;76.66
42727;BME280;28372;56.832;60.658;2022-10-31T02:52:51;96108.50;;;0.12;78.86
42727;BME280;28372;56.832;60.658;2022-10-31T02:57:55;96103.81;;;0.06;84.17
42727;BME280;28372;56.832;60.658;2022-10-31T03:00:24;96107.75;;;0.12;78.22
42727;BME280;28372;56.832;60.658;2022-10-31T03:03:15;96102.53;;;0.15;81.17
42727;BME280;28372;56.832;60.658;2022-10-31T03:06:09;96095.66;;;0.14;81.32
42727;BME280;28372;56.832;60.658;2022-10-31T03:08:58;96103.63;;;0.14;79.21
42727;BME280;28372;56.832;60.658;2022-10-31T03:11:42;96091.78;;;0.12;81.43
42727;BME280;28372;56.832;60.658;2022-10-31T03:14:18;96103.63;;;0.14;80.10
42727;BME280;28372;56.832;60.658;2022-10-31T03:16:54;96096.75;;;0.13;80.39
42727;BME280;28372;56.832;60.658;2022-10-31T03:19:40;96097.78;;;0.25;75.65
42727;BME280;28372;56.832;60.658;2022-10-31T03:22:17;96118.28;;;0.24;74.69
42727;BME280;28372;56.832;60.658;2022-10-31T03:24:46;96097.13;;;0.12;81.68
42727;BME280;28372;56.832;60.658;2022-10-31T03:27:22;96093.41;;;0.16;77.29
42727;BME280;28372;56.832;60.658;2022-10-31T03:29:55;96104.66;;;0.10;79.24
42727;BME280;28372;56.832;60.658;2022-10-31T03:32:39;96100.63;;;0.16;81.08
42727;BME280;28372;56.832;60.658;2022-10-31T03:35:14;96090.25;;;0.11;84.57
42727;BME280;28372;56.832;60.658;2022-10-31T03:37:43;96103.47;;;0.07;80.21
42727;BME280;28372;56.832;60.658;2022-10-31T03:40:14;96076.25;;;0.14;80.89
42727;BME280;28372;56.832;60.658;2022-10-31T03:42:48;96088.59;;;0.22;76.92
42727;BME280;28372;56.832;60.658;2022-10-31T03:45:24;96081.91;;;0.28;74.43
42727;BME280;28372;56.832;60.658;2022-10-31T03:47:53;96089.31;;;0.19;81.12
42727;BME280;28372;56.832;60.658;2022-10-31T03:50:24;96079.38;;;0.16;83.63
42727;BME280;28372;56.832;60.658;2022-10-31T03:52:58;96085.78;;;0.15;84.80
42727;BME280;28372;56.832;60.658;2022-10-31T03:55:52;96088.94;;;0.21;82.87
42727;BME280;28372;56.832;60.658;2022-10-31T03:58:25;96070.34;;;0.21;79.03
42727;BME280;28372;56.832;60.658;2022-10-31T04:00:56;96093.91;;;0.22;83.88
42727;BME280;28372;56.832;60.658;2022-10-31T04:03:32;96084.06;;;0.23;81.82
42727;BME280;28372;56.832;60.658;2022-10-31T04:06:05;96098.88;;;0.24;82.66
42727;BME280;28372;56.832;60.658;2022-10-31T04:08:48;96089.91;;;0.28;80.98
42727;BME280;28372;56.832;60.658;2022-10-31T04:11:21;96084.13;;;0.26;79.52
42727;BME280;28372;56.832;60.658;2022-10-31T04:14:11;96095.47;;;0.23;81.32
42727;BME280;28372;56.832;60.658;2022-10-31T04:16:42;96087.31;;;0.32;81.93
42727;BME280;28372;56.832;60.658;2022-10-31T04:19:12;96079.91;;;0.41;75.02
42727;BME280;28372;56.832;60.658;2022-10-31T04:21:40;96083.44;;;0.29;79.63
42727;BME280;28372;56.832;60.658;2022-10-31T04:24:10;96090.91;;;0.40;80.29
42727;BME280;28372;56.832;60.658;2022-10-31T04:26:39;96080.78;;;0.29;85.89
42727;BME280;28372;56.832;60.658;2022-10-31T04:29:06;96083.63;;;0.37;79.83
42727;BME280;28372;56.832;60.658;2022-10-31T04:31:34;96085.09;;;0.34;82.95
42727;BME280;28372;56.832;60.658;2022-10-31T04:34:01;96073.03;;;0.40;79.16
42727;BME280;28372;56.832;60.658;2022-10-31T04:36:29;96083.84;;;0.47;77.05
42727;BME280;28372;56.832;60.658;2022-10-31T04:38:57;96086.84;;;0.46;79.09
42727;BME280;28372;56.832;60.658;2022-10-31T04:41:46;96080.41;;;0.47;77.52
42727;BME280;28372;56.832;60.658;2022-10-31T04:44:15;96078.59;;;0.51;78.16
42727;BME280;28372;56.832;60.658;2022-10-31T04:46:46;96072.19;;;0.52;78.51
42727;BME280;28372;56.832;60.658;2022-10-31T04:49:13;96059.19;;;0.50;80.36
42727;BME280;28372;56.832;60.658;2022-10-31T04:51:41;96089.59;;;0.49;79.69
42727;BME280;28372;56.832;60.658;2022-10-31T04:54:08;96071.13;;;0.57;80.89
42727;BME280;28372;56.832;60.658;2022-10-31T04:56:54;96065.47;;;0.58;78.40
42727;BME280;28372;56.832;60.658;2022-10-31T04:59:22;96091.09;;;0.66;75.03
42727;BME280;28372;56.832;60.658;2022-10-31T05:01:53;96073.22;;;0.67;75.96
42727;BME280;28372;56.832;60.658;2022-10-31T05:04:37;96064.97;;;0.72;75.15
42727;BME280;28372;56.832;60.658;2022-10-31T05:07:05;96068.13;;;0.78;72.64
42727;BME280;28372;56.832;60.658;2022-10-31T05:09:32;96084.00;;;0.74;77.07
42727;BME280;28372;56.832;60.658;2022-10-31T05:12:00;96084.94;;;0.82;74.17
42727;BME280;28372;56.832;60.658;2022-10-31T05:14:46;96091.81;;;0.83;75.17
42727;BME280;28372;56.832;60.658;2022-10-31T05:17:44;96095.25;;;0.83;81.05
42727;BME280;28372;56.832;60.658;2022-10-31T05:20:32;96084.25;;;0.85;81.96
42727;BME280;28372;56.832;60.658;2022-10-31T05:23:02;96087.00;;;0.89;76.77
42727;BME280;28372;56.832;60.658;2022-10-31T05:25:30;96091.25;;;0.93;76.29
42727;BME280;28372;56.832;60.658;2022-10-31T05:28:01;96083.28;;;0.93;78.07
42727;BME280;28372;56.832;60.658;2022-10-31T05:30:30;96071.16;;;0.96;82.36
42727;BME280;28372;56.832;60.658;2022-10-31T05:32:58;96104.66;;;0.97;78.79
42727;BME280;28372;56.832;60.658;2022-10-31T05:35:41;96075.28;;;1.13;77.10
42727;BME280;28372;56.832;60.658;2022-10-31T05:38:31;96060.06;;;1.13;74.61
42727;BME280;28372;56.832;60.658;2022-10-31T05:41:08;96066.44;;;1.09;80.23
42727;BME280;28372;56.832;60.658;2022-10-31T05:43:38;96076.03;;;1.13;79.31
42727;BME280;28372;56.832;60.658;2022-10-31T05:46:06;96075.69;;;1.15;78.22
42727;BME280;28372;56.832;60.658;2022-10-31T05:49:05;96085.78;;;1.25;76.68
42727;BME280;28372;56.832;60.658;2022-10-31T05:52:08;96083.88;;;1.26;80.42
42727;BME280;28372;56.832;60.658;2022-10-31T05:54:43;96092.34;;;1.31;78.25
42727;BME280;28372;56.832;60.658;2022-10-31T05:57:11;96080.63;;;1.36;76.35
42727;BME280;28372;56.832;60.658;2022-10-31T05:59:38;96102.03;;;1.40;77.61
42727;BME280;28372;56.832;60.658;2022-10-31T06:02:06;96091.38;;;1.40;79.83
42727;BME280;28372;56.832;60.658;2022-10-31T06:05:12;96101.78;;;1.48;78.83
42727;BME280;28372;56.832;60.658;2022-10-31T06:07:40;96094.59;;;1.49;81.20
42727;BME280;28372;56.832;60.658;2022-10-31T06:10:10;96093.31;;;1.43;87.74
42727;BME280;28372;56.832;60.658;2022-10-31T06:12:38;96085.34;;;1.43;86.61
42727;BME280;28372;56.832;60.658;2022-10-31T06:15:18;96082.09;;;1.53;82.05
42727;BME280;28372;56.832;60.658;2022-10-31T06:18:03;96086.00;;;1.59;83.47
42727;BME280;28372;56.832;60.658;2022-10-31T06:20:43;96092.56;;;1.65;82.06
42727;BME280;28372;56.832;60.658;2022-10-31T06:23:11;96100.16;;;1.63;86.57
42727;BME280;28372;56.832;60.658;2022-10-31T06:25:40;96091.22;;;1.75;78.35
42727;BME280;28372;56.832;60.658;2022-10-31T06:28:10;96096.19;;;1.77;79.33
42727;BME280;28372;56.832;60.658;2022-10-31T06:31:00;96105.09;;;1.84;79.69
42727;BME280;28372;56.832;60.658;2022-10-31T06:33:30;96097.94;;;1.88;78.62
42727;BME280;28372;56.832;60.658;2022-10-31T06:36:01;96112.50;;;1.95;76.14
42727;BME280;28372;56.832;60.658;2022-10-31T06:38:28;96113.63;;;1.94;77.54
42727;BME280;28372;56.832;60.658;2022-10-31T06:40:57;96108.72;;;1.96;81.61
42727;BME280;28372;56.832;60.658;2022-10-31T06:43:26;96109.91;;;1.98;80.08
42727;BME280;28372;56.832;60.658;2022-10-31T06:46:16;96111.84;;;2.01;78.29
42727;BME280;28372;56.832;60.658;2022-10-31T06:49:06;96110.47;;;2.11;76.36
42727;BME280;28372;56.832;60.658;2022-10-31T06:51:41;96129.91;;;2.12;80.24
42727;BME280;28372;56.832;60.658;2022-10-31T06:54:09;96128.44;;;2.14;81.15
42727;BME280;28372;56.832;60.658;2022-10-31T06:56:37;96117.75;;;2.14;80.89
42727;BME280;28372;56.832;60.658;2022-10-31T06:59:04;96116.34;;;2.20;79.60
42727;BME280;28372;56.832;60.658;2022-10-31T07:01:52;96122.16;;;2.26;78.20
42727;BME280;28372;56.832;60.658;2022-10-31T07:04:19;96112.59;;;2.25;77.97
42727;BME280;28372;56.832;60.658;2022-10-31T07:06:47;96115.97;;;2.22;81.89
42727;BME280;28372;56.832;60.658;2022-10-31T07:09:18;96121.81;;;2.31;82.13
42727;BME280;28372;56.832;60.658;2022-10-31T07:11:47;96131.84;;;2.38;78.96
42727;BME280;28372;56.832;60.658;2022-10-31T07:14:14;96120.06;;;2.39;79.01
42727;BME280;28372;56.832;60.658;2022-10-31T07:16:42;96131.09;;;2.37;80.43
42727;BME280;28372;56.832;60.658;2022-10-31T07:19:13;96120.78;;;2.36;83.75
42727;BME280;28372;56.832;60.658;2022-10-31T07:21:41;96128.41;;;2.37;80.71
42727;BME280;28372;56.832;60.658;2022-10-31T07:24:13;96118.97;;;2.44;81.49
42727;BME280;28372;56.832;60.658;2022-10-31T07:26:43;96141.91;;;2.48;79.73
42727;BME280;28372;56.832;60.658;2022-10-31T07:29:14;96136.91;;;2.47;82.18
42727;BME280;28372;56.832;60.658;2022-10-31T07:31:41;96125.19;;;2.51;81.82
42727;BME280;28372;56.832;60.658;2022-10-31T07:34:14;96127.91;;;2.55;80.90
42727;BME280;28372;56.832;60.658;2022-10-31T07:37:00;96146.53;;;2.51;82.60
42727;BME280;28372;56.832;60.658;2022-10-31T07:39:29;96128.69;;;2.55;83.28
42727;BME280;28372;56.832;60.658;2022-10-31T07:41:58;96135.88;;;2.51;85.45
42727;BME280;28372;56.832;60.658;2022-10-31T07:44:26;96127.53;;;2.56;85.10
42727;BME280;28372;56.832;60.658;2022-10-31T07:47:00;96129.19;;;2.65;81.62
42727;BME280;28372;56.832;60.658;2022-10-31T07:49:47;96128.88;;;2.70;82.09
42727;BME280;28372;56.832;60.658;2022-10-31T07:52:35;96138.38;;;2.67;86.23
42727;BME280;28372;56.832;60.658;2022-10-31T07:55:22;96135.03;;;2.74;81.24
42727;BME280;28372;56.832;60.658;2022-10-31T07:58:00;96149.66;;;2.84;81.80
42727;BME280;28372;56.832;60.658;2022-10-31T08:00:30;96153.47;;;2.83;80.38
42727;BME280;28372;56.832;60.658;2022-10-31T08:02:59;96134.13;;;2.93;78.26
42727;BME280;28372;56.832;60.658;2022-10-31T08:05:46;96137.59;;;2.94;77.19
42727;BME280;28372;56.832;60.658;2022-10-31T08:08:31;96140.19;;;2.90;77.82
42727;BME280;28372;56.832;60.658;2022-10-31T08:11:05;96145.63;;;2.97;78.08
42727;BME280;28372;56.832;60.658;2022-10-31T08:13:33;96133.53;;;3.03;78.16
42727;BME280;28372;56.832;60.658;2022-10-31T08:16:02;96134.66;;;3.02;76.69
42727;BME280;28372;56.832;60.658;2022-10-31T08:18:35;96137.75;;;3.04;78.67
42727;BME280;28372;56.832;60.658;2022-10-31T08:21:11;96134.69;;;3.06;77.79
42727;BME280;28372;56.832;60.658;2022-10-31T08:23:38;96133.16;;;3.05;76.49
42727;BME280;28372;56.832;60.658;2022-10-31T08:26:07;96133.53;;;3.07;79.69
42727;BME280;28372;56.832;60.658;2022-10-31T08:28:35;96132.41;;;3.04;80.72
42727;BME280;28372;56.832;60.658;2022-10-31T08:31:02;96131.66;;;3.07;80.73
42727;BME280;28372;56.832;60.658;2022-10-31T08:33:39;96125.78;;;2.95;82.93
42727;BME280;28372;56.832;60.658;2022-10-31T08:36:19;96150.72;;;3.06;82.80
42727;BME280;28372;56.832;60.658;2022-10-31T08:38:50;96134.38;;;3.11;81.48
42727;BME280;28372;56.832;60.658;2022-10-31T08:41:27;96142.00;;;3.13;83.98
42727;BME280;28372;56.832;60.658;2022-10-31T08:43:55;96130.94;;;3.11;84.38
42727;BME280;28372;56.832;60.658;2022-10-31T08:46:22;96130.94;;;3.11;85.13
42727;BME280;28372;56.832;60.658;2022-10-31T08:48:50;96150.38;;;3.11;84.90
42727;BME280;28372;56.832;60.658;2022-10-31T08:51:19;96135.19;;;3.15;85.57
42727;BME280;28372;56.832;60.658;2022-10-31T08:53:56;96143.69;;;3.24;86.98
42727;BME280;28372;56.832;60.658;2022-10-31T08:57:02;96140.00;;;3.36;81.14
42727;BME280;28372;56.832;60.658;2022-10-31T09:00:03;96149.94;;;3.36;82.94
42727;BME280;28372;56.832;60.658;2022-10-31T09:03:13;96161.00;;;3.38;83.09
42727;BME280;28372;56.832;60.658;2022-10-31T16:22:55;96268.81;;;2.46;100.00
42727;BME280;28372;56.832;60.658;2022-10-31T16:25:36;96272.03;;;2.78;100.00
42727;BME280;28372;56.832;60.658;2022-10-31T16:28:20;96272.88;;;2.86;100.00
42727;BME280;28372;56.832;60.658;2022-10-31T16:30:54;96283.38;;;2.98;100.00
42727;BME280;28372;56.832;60.658;2022-10-31T16:33:34;96269.78;;;3.07;100.00
42727;BME280;28372;56.832;60.658;2022-10-31T16:39:02;96257.34;;;3.18;100.00
42727;BME280;28372;56.832;60.658;2022-10-31T16:41:32;96254.66;;;3.18;100.00
42727;BME280;28372;56.832;60.658;2022-10-31T16:44:02;96263.50;;;3.22;100.00
42727;BME280;28372;56.832;60.658;2022-10-31T16:46:31;96253.97;;;3.21;100.00
42727;BME280;28372;56.832;60.658;2022-10-31T16:48:59;96252.16;;;3.29;100.00
42727;BME280;28372;56.832;60.658;2022-10-31T16:51:26;96241.47;;;3.29;100.00
42727;BME280;28372;56.832;60.658;2022-10-31T16:53:53;96250.75;;;3.39;100.00
42727;BME280;28372;56.832;60.658;2022-10-31T16:56:28;96247.44;;;3.49;100.00
42727;BME280;28372;56.832;60.658;2022-10-31T16:59:03;96251.56;;;3.43;100.00
42727;BME280;28372;56.832;60.658;2022-10-31T17:01:35;96251.63;;;3.47;100.00
42727;BME280;28372;56.832;60.658;2022-10-31T17:04:03;96251.38;;;3.59;100.00
42727;BME280;28372;56.832;60.658;2022-10-31T17:06:30;96251.47;;;3.36;100.00
42727;BME280;28372;56.832;60.658;2022-10-31T17:08:59;96246.59;;;3.41;100.00
42727;BME280;28372;56.832;60.658;2022-10-31T17:11:26;96258.84;;;3.42;100.00
42727;BME280;28372;56.832;60.658;2022-10-31T17:13:58;96256.25;;;3.50;100.00
42727;BME280;28372;56.832;60.658;2022-10-31T17:16:30;96239.69;;;3.40;100.00
42727;BME280;28372;56.832;60.658;2022-10-31T17:19:01;96241.03;;;3.54;100.00
42727;BME280;28372;56.832;60.658;2022-10-31T17:21:31;96242.59;;;3.58;100.00
42727;BME280;28372;56.832;60.658;2022-10-31T17:23:58;96241.84;;;3.58;100.00
42727;BME280;28372;56.832;60.658;2022-10-31T17:26:26;96229.16;;;3.51;100.00
42727;BME280;28372;56.832;60.658;2022-10-31T17:28:55;96250.75;;;3.69;100.00
42727;BME280;28372;56.832;60.658;2022-10-31T17:31:30;96256.13;;;3.73;100.00
42727;BME280;28372;56.832;60.658;2022-10-31T17:33:59;96248.41;;;3.64;100.00
42727;BME280;28372;56.832;60.658;2022-10-31T17:36:30;96251.03;;;3.60;100.00
42727;BME280;28372;56.832;60.658;2022-10-31T17:38:58;96291.31;;;3.75;100.00
42727;BME280;28372;56.832;60.658;2022-10-31T17:41:26;96272.06;;;3.62;100.00
42727;BME280;28372;56.832;60.658;2022-10-31T17:43:55;96282.66;;;3.85;100.00
42727;BME280;28372;56.832;60.658;2022-10-31T17:46:23;96261.56;;;3.80;100.00
42727;BME280;28372;56.832;60.658;2022-10-31T17:48:52;96264.66;;;3.82;100.00
42727;BME280;28372;56.832;60.658;2022-10-31T17:51:20;96262.81;;;3.90;100.00
42727;BME280;28372;56.832;60.658;2022-10-31T17:53:48;96259.69;;;3.84;100.00
42727;BME280;28372;56.832;60.658;2022-10-31T17:56:15;96248.31;;;3.87;100.00
42727;BME280;28372;56.832;60.658;2022-10-31T17:58:43;96245.88;;;3.75;100.00
42727;BME280;28372;56.832;60.658;2022-10-31T18:01:13;96260.56;;;3.92;100.00
42727;BME280;28372;56.832;60.658;2022-10-31T18:03:42;96267.09;;;3.94;100.00
42727;BME280;28372;56.832;60.658;2022-10-31T18:06:11;96260.25;;;3.97;100.00
42727;BME280;28372;56.832;60.658;2022-10-31T18:08:40;96263.31;;;3.99;100.00
42727;BME280;28372;56.832;60.658;2022-10-31T18:11:19;96276.63;;;3.92;100.00
42727;BME280;28372;56.832;60.658;2022-10-31T18:14:02;96261.97;;;3.82;100.00
42727;BME280;28372;56.832;60.658;2022-10-31T18:16:38;96249.94;;;3.65;100.00
42727;BME280;28372;56.832;60.658;2022-10-31T18:19:11;96286.59;;;3.95;100.00
42727;BME280;28372;56.832;60.658;2022-10-31T18:21:39;96260.41;;;3.77;100.00
42727;BME280;28372;56.832;60.658;2022-10-31T18:24:08;96261.81;;;3.68;100.00
42727;BME280;28372;56.832;60.658;2022-10-31T18:26:36;96244.63;;;3.69;100.00
42727;BME280;28372;56.832;60.658;2022-10-31T18:29:05;96235.78;;;3.65;100.00
42727;BME280;28372;56.832;60.658;2022-10-31T18:31:33;96252.47;;;3.85;100.00
42727;BME280;28372;56.832;60.658;2022-10-31T18:34:00;96262.38;;;3.84;100.00
42727;BME280;28372;56.832;60.658;2022-10-31T18:36:28;96246.69;;;3.79;100.00
42727;BME280;28372;56.832;60.658;2022-10-31T18:38:55;96240.97;;;3.81;100.00
42727;BME280;28372;56.832;60.658;2022-10-31T18:41:23;96260.16;;;3.90;100.00
42727;BME280;28372;56.832;60.658;2022-10-31T18:43:51;96254.72;;;3.83;100.00
42727;BME280;28372;56.832;60.658;2022-10-31T18:46:22;96245.88;;;3.75;100.00
42727;BME280;28372;56.832;60.658;2022-10-31T18:48:49;96232.50;;;3.75;100.00
42727;BME280;28372;56.832;60.658;2022-10-31T18:51:17;96240.50;;;3.75;100.00
42727;BME280;28372;56.832;60.658;2022-10-31T18:53:52;96244.44;;;3.85;100.00
42727;BME280;28372;56.832;60.658;2022-10-31T18:56:20;96249.38;;;3.83;100.00
42727;BME280;28372;56.832;60.658;2022-10-31T18:58:54;96252.13;;;3.90;100.00
42727;BME280;28372;56.832;60.658;2022-10-31T19:01:25;96261.31;;;3.89;100.00
42727;BME280;28372;56.832;60.658;2022-10-31T19:03:53;96247.94;;;3.89;100.00
42727;BME280;28372;56.832;60.658;2022-10-31T19:06:23;96269.34;;;3.92;100.00
42727;BME280;28372;56.832;60.658;2022-10-31T19:08:59;96255.16;;;3.85;100.00
42727;BME280;28372;56.832;60.658;2022-10-31T19:11:30;96257.59;;;3.97;100.00
42727;BME280;28372;56.832;60.658;2022-10-31T19:13:58;96258.25;;;3.90;100.00
42727;BME280;28372;56.832;60.658;2022-10-31T19:16:27;96256.69;;;3.86;100.00
42727;BME280;28372;56.832;60.658;2022-10-31T19:18:56;96242.16;;;3.87;100.00
42727;BME280;28372;56.832;60.658;2022-10-31T19:21:26;96246.38;;;3.88;100.00
42727;BME280;28372;56.832;60.658;2022-10-31T19:23:54;96255.59;;;3.90;100.00
42727;BME280;28372;56.832;60.658;2022-10-31T19:26:23;96243.59;;;3.77;100.00
42727;BME280;28372;56.832;60.658;2022-10-31T19:28:51;96240.53;;;3.78;100.00
42727;BME280;28372;56.832;60.658;2022-10-31T19:31:20;96249.06;;;3.88;100.00
42727;BME280;28372;56.832;60.658;2022-10-31T19:33:49;96246.75;;;3.86;100.00
42727;BME280;28372;56.832;60.658;2022-10-31T19:36:18;96255.97;;;3.89;100.00
42727;BME280;28372;56.832;60.658;2022-10-31T19:38:50;96246.34;;;3.84;100.00
42727;BME280;28372;56.832;60.658;2022-10-31T19:41:21;96259.75;;;3.88;100.00
42727;BME280;28372;56.832;60.658;2022-10-31T19:43:49;96255.59;;;3.94;100.00
42727;BME280;28372;56.832;60.658;2022-10-31T19:46:19;96251.06;;;3.94;100.00
42727;BME280;28372;56.832;60.658;2022-10-31T19:48:59;96244.22;;;3.97;100.00
42727;BME280;28372;56.832;60.658;2022-10-31T19:51:28;96244.53;;;3.92;100.00
42727;BME280;28372;56.832;60.658;2022-10-31T19:53:55;96257.13;;;3.91;100.00
42727;BME280;28372;56.832;60.658;2022-10-31T19:56:23;96257.94;;;3.96;100.00
42727;BME280;28372;56.832;60.658;2022-10-31T19:58:52;96249.25;;;4.06;100.00
42727;BME280;28372;56.832;60.658;2022-10-31T20:01:22;96241.16;;;3.99;100.00
42727;BME280;28372;56.832;60.658;2022-10-31T20:03:50;96248.03;;;4.00;100.00
42727;BME280;28372;56.832;60.658;2022-10-31T20:06:22;96254.09;;;3.93;100.00
42727;BME280;28372;56.832;60.658;2022-10-31T20:08:50;96246.50;;;3.99;100.00
42727;BME280;28372;56.832;60.658;2022-10-31T20:11:20;96242.06;;;3.76;100.00
42727;BME280;28372;56.832;60.658;2022-10-31T20:13:48;96254.78;;;3.86;100.00
42727;BME280;28372;56.832;60.658;2022-10-31T20:16:16;96249.75;;;3.81;100.00
42727;BME280;28372;56.832;60.658;2022-10-31T20:18:46;96249.81;;;3.88;100.00
42727;BME280;28372;56.832;60.658;2022-10-31T20:21:19;96254.41;;;3.88;100.00
42727;BME280;28372;56.832;60.658;2022-10-31T20:23:48;96255.16;;;3.88;100.00
42727;BME280;28372;56.832;60.658;2022-10-31T20:26:18;96249.13;;;3.91;100.00
42727;BME280;28372;56.832;60.658;2022-10-31T20:28:46;96239.16;;;3.92;100.00
42727;BME280;28372;56.832;60.658;2022-10-31T20:31:16;96247.19;;;3.92;100.00
42727;BME280;28372;56.832;60.658;2022-10-31T20:33:44;96251.81;;;3.95;100.00
42727;BME280;28372;56.832;60.658;2022-10-31T20:36:12;96263.25;;;3.92;100.00
42727;BME280;28372;56.832;60.658;2022-10-31T20:38:40;96250.97;;;3.87;100.00
42727;BME280;28372;56.832;60.658;2022-10-31T20:41:09;96251.78;;;3.91;100.00
42727;BME280;28372;56.832;60.658;2022-10-31T20:43:37;96257.13;;;3.91;100.00
42727;BME280;28372;56.832;60.658;2022-10-31T20:46:10;96254.47;;;3.91;100.00
42727;BME280;28372;56.832;60.658;2022-10-31T20:48:38;96242.28;;;3.98;100.00
42727;BME280;28372;56.832;60.658;2022-10-31T20:51:09;96241.84;;;3.92;100.00
42727;BME280;28372;56.832;60.658;2022-10-31T20:53:38;96245.72;;;3.98;100.00
42727;BME280;28372;56.832;60.658;2022-10-31T20:56:13;96250.38;;;4.05;100.00
42727;BME280;28372;56.832;60.658;2022-10-31T20:58:42;96255.00;;;4.08;100.00
42727;BME280;28372;56.832;60.658;2022-10-31T21:01:21;96226.56;;;3.92;100.00
42727;BME280;28372;56.832;60.658;2022-10-31T21:03:49;96242.72;;;4.03;100.00
42727;BME280;28372;56.832;60.658;2022-10-31T21:06:18;96250.13;;;4.17;100.00
42727;BME280;28372;56.832;60.658;2022-10-31T21:08:47;96236.00;;;4.17;100.00